Time,TemperatureF,DewpointF,PressureIn,WindDirection,WindDirectionDegrees,WindSpeedMPH,WindSpeedGustMPH,Humidity,HourlyPrecipIn,Conditions,Clouds,dailyrainin,SoftwareType,DateUTC
2013-06-14 00:01:00,76.0,66.0,29.97,NE,49,2.0,4.0,72,0.00,,,0.00,,2013-06-14 04:01:00,
2013-06-14 00:12:00,75.0,66.0,29.97,East,97,4.0,12.0,73,0.00,,,0.00,,2013-06-14 04:12:00,
2013-06-14 00:22:00,75.0,66.0,29.96,SSW,195,4.0,9.0,73,0.00,,,0.00,,2013-06-14 04:22:00,
2013-06-14 00:33:00,75.0,66.0,29.96,SE,143,4.0,7.0,74,0.00,,,0.00,,2013-06-14 04:33:00,
2013-06-14 00:43:00,75.0,67.0,29.97,NE,39,3.0,6.0,75,0.00,,,0.00,,2013-06-14 04:43:00,
2013-06-14 00:53:00,75.0,67.0,29.97,SSE,150,2.0,4.0,76,0.00,,,0.00,,2013-06-14 04:53:00,
2013-06-14 01:02:00,75.0,67.0,29.97,SSE,150,2.0,4.0,76,0.00,,,0.00,,2013-06-14 05:02:00,
2013-06-14 01:11:00,74.0,66.0,29.98,SSW,193,2.0,3.0,77,0.00,,,0.00,,2013-06-14 05:11:00,
2013-06-14 01:22:00,74.0,66.0,29.98,West,262,3.0,6.0,77,0.00,,,0.00,,2013-06-14 05:22:00,
2013-06-14 01:34:00,74.0,66.0,29.98,ENE,75,2.0,3.0,76,0.00,,,0.00,,2013-06-14 05:34:00,
2013-06-14 01:43:00,74.0,66.0,29.98,WSW,240,2.0,4.0,77,0.00,,,0.00,,2013-06-14 05:43:00,
2013-06-14 01:52:00,73.0,66.0,29.98,NW,323,1.0,1.0,79,0.00,,,0.00,,2013-06-14 05:52:00,
2013-06-14 02:02:00,73.0,66.0,29.98,NW,323,1.0,1.0,79,0.00,,,0.00,,2013-06-14 06:02:00,
2013-06-14 02:12:00,73.0,66.0,29.98,North,359,3.0,4.0,79,0.00,,,0.00,,2013-06-14 06:12:00,
2013-06-14 02:22:00,73.0,66.0,29.98,North,352,5.0,11.0,79,0.00,,,0.00,,2013-06-14 06:22:00,
2013-06-14 02:33:00,72.0,65.0,29.98,North,1,4.0,7.0,80,0.00,,,0.00,,2013-06-14 06:33:00,
2013-06-14 02:43:00,72.0,65.0,29.98,NNW,339,4.0,9.0,80,0.00,,,0.00,,2013-06-14 06:43:00,
2013-06-14 02:52:00,72.0,65.0,29.98,West,281,3.0,6.0,80,0.00,,,0.00,,2013-06-14 06:52:00,
2013-06-14 03:02:00,72.0,65.0,29.98,West,281,3.0,6.0,80,0.00,,,0.00,,2013-06-14 07:02:00,
2013-06-14 03:12:00,71.0,65.0,29.99,NNE,23,1.0,2.0,81,0.00,,,0.00,,2013-06-14 07:12:00,
2013-06-14 03:22:00,71.0,65.0,29.99,NNE,23,1.0,2.0,81,0.00,,,0.00,,2013-06-14 07:22:00,
2013-06-14 03:33:00,71.0,63.0,29.98,East,82,5.0,6.0,77,0.00,,,0.00,,2013-06-14 07:33:00,
2013-06-14 03:43:00,71.0,64.0,29.98,NNW,343,4.0,5.0,79,0.00,,,0.00,,2013-06-14 07:43:00,
2013-06-14 03:53:00,70.0,62.0,29.98,NNE,21,6.0,13.0,76,0.00,,,0.00,,2013-06-14 07:53:00,
2013-06-14 04:02:00,70.0,61.0,29.97,SW,235,3.0,5.0,74,0.00,,,0.00,,2013-06-14 08:02:00,
2013-06-14 04:12:00,70.0,60.0,29.97,SSE,149,5.0,8.0,71,0.00,,,0.00,,2013-06-14 08:12:00,
2013-06-14 04:23:00,70.0,60.0,29.97,East,101,3.0,6.0,71,0.00,,,0.00,,2013-06-14 08:23:00,
2013-06-14 04:33:00,69.0,60.0,29.97,West,264,4.0,8.0,73,0.00,,,0.00,,2013-06-14 08:33:00,
2013-06-14 04:43:00,69.0,60.0,29.98,NNE,27,2.0,3.0,72,0.00,,,0.00,,2013-06-14 08:43:00,
2013-06-14 04:53:00,69.0,59.0,29.99,SSW,195,4.0,11.0,70,0.00,,,0.00,,2013-06-14 08:53:00,
2013-06-14 05:02:00,69.0,60.0,29.99,ENE,76,5.0,8.0,72,0.00,,,0.00,,2013-06-14 09:02:00,
2013-06-14 05:12:00,69.0,60.0,29.99,NNW,329,3.0,5.0,72,0.00,,,0.00,,2013-06-14 09:12:00,
2013-06-14 05:22:00,69.0,60.0,29.99,NNW,338,3.0,7.0,73,0.00,,,0.00,,2013-06-14 09:22:00,
2013-06-14 05:33:00,68.0,61.0,30.01,West,260,3.0,4.0,77,0.00,,,0.00,,2013-06-14 09:33:00,
2013-06-14 05:43:00,68.0,60.0,30.01,West,273,3.0,4.0,76,0.00,,,0.00,,2013-06-14 09:43:00,
2013-06-14 05:53:00,68.0,61.0,30.01,South,184,2.0,2.0,77,0.00,,,0.00,,2013-06-14 09:53:00,
2013-06-14 06:01:00,67.0,60.0,30.01,West,259,0.0,1.0,78,0.00,,,0.00,,2013-06-14 10:01:00,
2013-06-14 06:11:00,67.0,60.0,30.01,NW,314,1.0,1.0,78,0.00,,,0.00,,2013-06-14 10:11:00,
2013-06-14 06:22:00,67.0,61.0,30.03,WNW,290,1.0,2.0,80,0.00,,,0.00,,2013-06-14 10:22:00,
2013-06-14 06:34:00,67.0,59.0,30.02,SSW,208,2.0,3.0,75,0.00,,,0.00,,2013-06-14 10:34:00,
2013-06-14 06:43:00,66.0,60.0,30.03,NE,46,2.0,3.0,81,0.00,,,0.00,,2013-06-14 10:43:00,
2013-06-14 06:52:00,66.0,60.0,30.03,NE,46,2.0,3.0,81,0.00,,,0.00,,2013-06-14 10:52:00,
2013-06-14 07:02:00,65.0,60.0,30.03,SSE,153,2.0,2.0,85,0.00,,,0.00,,2013-06-14 11:02:00,
2013-06-14 07:11:00,64.0,60.0,30.03,ESE,104,0.0,0.0,88,0.00,,,0.00,,2013-06-14 11:11:00,
2013-06-14 07:23:00,64.0,62.0,30.03,WSW,253,4.0,5.0,93,0.00,,,0.00,,2013-06-14 11:23:00,
2013-06-14 07:32:00,64.0,61.0,30.04,ENE,66,0.0,1.0,90,0.00,,,0.00,,2013-06-14 11:32:00,
2013-06-14 07:43:00,63.0,61.0,30.03,North,10,2.0,4.0,93,0.00,,,0.00,,2013-06-14 11:43:00,
2013-06-14 07:52:00,64.0,61.0,30.04,NE,35,2.0,4.0,91,0.00,,,0.00,,2013-06-14 11:52:00,
2013-06-14 08:02:00,64.0,61.0,30.04,NE,35,2.0,4.0,91,0.00,,,0.00,,2013-06-14 12:02:00,
2013-06-14 08:12:00,67.0,60.0,30.04,North,7,2.0,3.0,78,0.00,,,0.00,,2013-06-14 12:12:00,
2013-06-14 08:22:00,68.0,61.0,30.04,WNW,293,2.0,4.0,78,0.00,,,0.00,,2013-06-14 12:22:00,
2013-06-14 08:33:00,69.0,63.0,30.05,SW,236,1.0,2.0,80,0.00,,,0.00,,2013-06-14 12:33:00,
2013-06-14 08:43:00,69.0,61.0,30.04,SE,138,2.0,4.0,76,0.00,,,0.00,,2013-06-14 12:43:00,
2013-06-14 08:52:00,69.0,60.0,30.04,SSW,195,2.0,4.0,72,0.00,,,0.00,,2013-06-14 12:52:00,
2013-06-14 09:02:00,70.0,61.0,30.04,North,349,2.0,3.0,72,0.00,,,0.00,,2013-06-14 13:02:00,
2013-06-14 09:11:00,71.0,60.0,30.04,NNE,15,5.0,9.0,69,0.00,,,0.00,,2013-06-14 13:11:00,
2013-06-14 09:22:00,72.0,60.0,30.04,ESE,111,3.0,5.0,66,0.00,,,0.00,,2013-06-14 13:22:00,
2013-06-14 09:33:00,72.0,60.0,30.04,ESE,111,3.0,5.0,66,0.00,,,0.00,,2013-06-14 13:33:00,
2013-06-14 09:43:00,73.0,60.0,30.05,NW,304,2.0,4.0,64,0.00,,,0.00,,2013-06-14 13:43:00,
2013-06-14 09:53:00,74.0,59.0,30.06,ENE,63,3.0,6.0,60,0.00,,,0.00,,2013-06-14 13:53:00,
2013-06-14 10:02:00,75.0,60.0,30.06,NNW,330,3.0,5.0,60,0.00,,,0.00,,2013-06-14 14:02:00,
2013-06-14 10:11:00,76.0,60.0,30.07,West,280,4.0,6.0,57,0.00,,,0.00,,2013-06-14 14:11:00,
2013-06-14 10:22:00,77.0,61.0,30.06,North,6,3.0,4.0,57,0.00,,,0.00,,2013-06-14 14:22:00,
2013-06-14 10:34:00,77.0,61.0,30.06,North,6,3.0,4.0,57,0.00,,,0.00,,2013-06-14 14:34:00,
2013-06-14 10:43:00,78.0,59.0,30.06,ESE,105,4.0,7.0,52,0.00,,,0.00,,2013-06-14 14:43:00,
2013-06-14 10:52:00,78.0,59.0,30.07,NNE,30,3.0,5.0,53,0.00,,,0.00,,2013-06-14 14:52:00,
2013-06-14 11:02:00,78.0,59.0,30.07,NNE,30,3.0,5.0,53,0.00,,,0.00,,2013-06-14 15:02:00,
2013-06-14 11:11:00,78.0,60.0,30.07,WSW,256,3.0,6.0,54,0.00,,,0.00,,2013-06-14 15:11:00,
2013-06-14 11:23:00,79.0,61.0,30.07,ESE,120,2.0,4.0,55,0.00,,,0.00,,2013-06-14 15:23:00,
2013-06-14 11:33:00,79.0,61.0,30.08,ENE,62,0.0,0.0,55,0.00,,,0.00,,2013-06-14 15:33:00,
2013-06-14 11:44:00,80.0,60.0,30.09,NNE,14,1.0,3.0,51,0.00,,,0.00,,2013-06-14 15:44:00,
2013-06-14 11:53:00,81.0,63.0,30.08,SW,217,4.0,6.0,54,0.00,,,0.00,,2013-06-14 15:53:00,
2013-06-14 12:01:00,80.0,61.0,30.07,SW,217,4.0,6.0,53,0.00,,,0.00,,2013-06-14 16:01:00,
2013-06-14 12:11:00,80.0,59.0,30.08,NW,316,5.0,11.0,49,0.00,,,0.00,,2013-06-14 16:11:00,
2013-06-14 12:22:00,81.0,62.0,30.08,ENE,75,2.0,3.0,53,0.00,,,0.00,,2013-06-14 16:22:00,
2013-06-14 12:33:00,80.0,57.0,30.08,SSW,210,6.0,8.0,46,0.00,,,0.00,,2013-06-14 16:33:00,
2013-06-14 12:43:00,82.0,60.0,30.08,NE,38,3.0,5.0,47,0.00,,,0.00,,2013-06-14 16:43:00,
2013-06-14 12:52:00,82.0,60.0,30.08,SSW,203,0.0,2.0,47,0.00,,,0.00,,2013-06-14 16:52:00,
2013-06-14 13:02:00,82.0,61.0,30.08,East,93,4.0,5.0,49,0.00,,,0.00,,2013-06-14 17:02:00,
2013-06-14 13:11:00,82.0,63.0,30.08,ESE,118,1.0,3.0,53,0.00,,,0.00,,2013-06-14 17:11:00,
2013-06-14 13:22:00,83.0,62.0,30.08,NW,304,1.0,2.0,50,0.00,,,0.00,,2013-06-14 17:22:00,
2013-06-14 13:34:00,82.0,59.0,30.08,NW,309,2.0,4.0,46,0.00,,,0.00,,2013-06-14 17:34:00,
2013-06-14 13:43:00,83.0,59.0,30.08,West,278,3.0,6.0,44,0.00,,,0.00,,2013-06-14 17:43:00,
2013-06-14 13:53:00,83.0,62.0,30.09,SE,134,3.0,4.0,49,0.00,,,0.00,,2013-06-14 17:53:00,
2013-06-14 14:02:00,82.0,61.0,30.08,SE,131,4.0,5.0,50,0.00,,,0.00,,2013-06-14 18:02:00,
2013-06-14 14:11:00,81.0,63.0,30.08,NW,304,1.0,3.0,55,0.00,,,0.00,,2013-06-14 18:11:00,
2013-06-14 14:22:00,82.0,59.0,30.08,North,4,1.0,3.0,46,0.00,,,0.00,,2013-06-14 18:22:00,
2013-06-14 14:32:00,82.0,60.0,30.08,West,262,4.0,4.0,48,0.00,,,0.00,,2013-06-14 18:32:00,
2013-06-14 14:43:00,83.0,61.0,30.08,WSW,248,3.0,4.0,47,0.00,,,0.00,,2013-06-14 18:43:00,
2013-06-14 14:52:00,83.0,61.0,30.08,NNE,15,1.0,2.0,47,0.00,,,0.00,,2013-06-14 18:52:00,
2013-06-14 15:01:00,83.0,61.0,30.08,NNE,15,1.0,2.0,47,0.00,,,0.00,,2013-06-14 19:01:00,
2013-06-14 15:11:00,84.0,63.0,30.08,SE,127,2.0,4.0,50,0.00,,,0.00,,2013-06-14 19:11:00,
2013-06-14 15:22:00,84.0,60.0,30.08,SSE,158,3.0,5.0,44,0.00,,,0.00,,2013-06-14 19:22:00,
2013-06-14 15:32:00,84.0,63.0,30.08,East,93,2.0,4.0,50,0.00,,,0.00,,2013-06-14 19:32:00,
2013-06-14 15:43:00,84.0,60.0,30.08,SW,218,3.0,4.0,45,0.00,,,0.00,,2013-06-14 19:43:00,
2013-06-14 15:53:00,85.0,62.0,30.08,NNE,28,1.0,3.0,46,0.00,,,0.00,,2013-06-14 19:53:00,
2013-06-14 16:02:00,85.0,61.0,30.08,NE,48,3.0,4.0,45,0.00,,,0.00,,2013-06-14 20:02:00,
2013-06-14 16:11:00,82.0,59.0,30.08,East,86,3.0,6.0,46,0.00,,,0.00,,2013-06-14 20:11:00,
2013-06-14 16:22:00,82.0,59.0,30.08,North,1,3.0,4.0,45,0.00,,,0.00,,2013-06-14 20:22:00,
2013-06-14 16:33:00,84.0,58.0,30.08,ESE,114,3.0,4.0,42,0.00,,,0.00,,2013-06-14 20:33:00,
2013-06-14 16:43:00,83.0,59.0,30.07,NNE,31,2.0,4.0,45,0.00,,,0.00,,2013-06-14 20:43:00,
2013-06-14 16:53:00,83.0,59.0,30.07,NNE,31,2.0,4.0,45,0.00,,,0.00,,2013-06-14 20:53:00,
2013-06-14 17:02:00,83.0,59.0,30.07,NE,51,5.0,12.0,45,0.00,,,0.00,,2013-06-14 21:02:00,
2013-06-14 17:11:00,83.0,59.0,30.08,East,79,2.0,4.0,44,0.00,,,0.00,,2013-06-14 21:11:00,
2013-06-14 17:22:00,83.0,59.0,30.07,SE,128,5.0,6.0,45,0.00,,,0.00,,2013-06-14 21:22:00,
2013-06-14 17:34:00,83.0,59.0,30.08,SE,124,3.0,5.0,45,0.00,,,0.00,,2013-06-14 21:34:00,
2013-06-14 17:42:00,81.0,58.0,30.07,SE,127,4.0,8.0,46,0.00,,,0.00,,2013-06-14 21:42:00,
2013-06-14 17:52:00,81.0,59.0,30.07,NNE,18,3.0,5.0,47,0.00,,,0.00,,2013-06-14 21:52:00,
2013-06-14 18:02:00,81.0,59.0,30.07,East,80,4.0,5.0,48,0.00,,,0.00,,2013-06-14 22:02:00,
2013-06-14 18:12:00,80.0,58.0,30.08,ENE,75,2.0,4.0,47,0.00,,,0.00,,2013-06-14 22:12:00,
2013-06-14 18:22:00,80.0,58.0,30.08,SE,136,3.0,6.0,47,0.00,,,0.00,,2013-06-14 22:22:00,
2013-06-14 18:33:00,80.0,59.0,30.08,East,89,1.0,3.0,49,0.00,,,0.00,,2013-06-14 22:33:00,
2013-06-14 18:43:00,80.0,59.0,30.09,SE,132,1.0,2.0,48,0.00,,,0.00,,2013-06-14 22:43:00,
2013-06-14 18:53:00,80.0,58.0,30.09,ESE,120,3.0,5.0,47,0.00,,,0.00,,2013-06-14 22:53:00,
2013-06-14 19:02:00,79.0,58.0,30.09,East,101,2.0,3.0,48,0.00,,,0.00,,2013-06-14 23:02:00,
2013-06-14 19:11:00,79.0,58.0,30.09,ESE,122,2.0,3.0,49,0.00,,,0.00,,2013-06-14 23:11:00,
2013-06-14 19:22:00,79.0,58.0,30.10,ESE,118,3.0,4.0,48,0.00,,,0.00,,2013-06-14 23:22:00,
2013-06-14 19:33:00,79.0,59.0,30.10,WSW,257,1.0,3.0,50,0.00,,,0.00,,2013-06-14 23:33:00,
2013-06-14 19:43:00,78.0,60.0,30.11,WSW,249,0.0,0.0,54,0.00,,,0.00,,2013-06-14 23:43:00,
2013-06-14 19:52:00,77.0,61.0,30.11,SW,231,0.0,0.0,57,0.00,,,0.00,,2013-06-14 23:52:00,
2013-06-14 20:34:00,73.0,61.0,30.12,SW,226,0.0,0.0,67,0.00,,,0.00,,2013-06-15 00:34:00,
2013-06-14 20:43:00,72.0,61.0,30.12,SW,226,0.0,0.0,69,0.00,,,0.00,,2013-06-15 00:43:00,
2013-06-14 21:01:00,71.0,62.0,30.13,SW,226,0.0,0.0,72,0.00,,,0.00,,2013-06-15 01:01:00,
2013-06-14 21:11:00,70.0,61.0,30.13,SW,226,0.0,0.0,73,0.00,,,0.00,,2013-06-15 01:11:00,
2013-06-14 21:22:00,70.0,61.0,30.13,SW,226,0.0,0.0,73,0.00,,,0.00,,2013-06-15 01:22:00,
2013-06-14 21:33:00,69.0,60.0,30.13,SW,226,0.0,0.0,74,0.00,,,0.00,,2013-06-15 01:33:00,
2013-06-14 21:43:00,68.0,61.0,30.13,SW,226,0.0,0.0,77,0.00,,,0.00,,2013-06-15 01:43:00,
2013-06-14 21:54:00,68.0,61.0,30.14,SW,226,0.0,0.0,78,0.00,,,0.00,,2013-06-15 01:54:00,
2013-06-14 22:02:00,66.0,60.0,30.15,SW,226,0.0,0.0,81,0.00,,,0.00,,2013-06-15 02:02:00,
2013-06-14 22:11:00,66.0,60.0,30.16,SW,226,0.0,0.0,81,0.00,,,0.00,,2013-06-15 02:11:00,
2013-06-14 22:23:00,66.0,61.0,30.16,SW,226,0.0,0.0,84,0.00,,,0.00,,2013-06-15 02:23:00,
2013-06-14 22:33:00,66.0,61.0,30.16,SW,226,0.0,0.0,84,0.00,,,0.00,,2013-06-15 02:33:00,
2013-06-14 22:43:00,64.0,60.0,30.18,SW,226,0.0,0.0,87,0.00,,,0.00,,2013-06-15 02:43:00,
2013-06-14 22:53:00,64.0,60.0,30.18,SW,226,0.0,0.0,87,0.00,,,0.00,,2013-06-15 02:53:00,
2013-06-14 23:01:00,63.0,60.0,30.18,SW,226,0.0,0.0,90,0.00,,,0.00,,2013-06-15 03:01:00,
2013-06-14 23:11:00,63.0,61.0,30.18,SW,226,0.0,0.0,92,0.00,,,0.00,,2013-06-15 03:11:00,
2013-06-14 23:24:00,63.0,61.0,30.19,SW,226,0.0,0.0,93,0.00,,,0.00,,2013-06-15 03:24:00,
2013-06-14 23:32:00,62.0,60.0,30.19,SW,226,0.0,0.0,93,0.00,,,0.00,,2013-06-15 03:32:00,
2013-06-14 23:44:00,62.0,60.0,30.19,SW,226,0.0,0.0,93,0.00,,,0.00,,2013-06-15 03:44:00,
2013-06-14 23:52:00,62.0,61.0,30.20,SW,226,0.0,0.0,95,0.00,,,0.00,,2013-06-15 03:52:00,